createdAt,value
2022-10-14T00:00:50.758Z,12.48
2022-10-14T00:03:18.845Z,11.98
2022-10-14T00:05:46.915Z,12.55
2022-10-14T00:08:16.264Z,13.55
2022-10-14T00:10:44.407Z,13.57
2022-10-14T00:13:12.440Z,14.27
2022-10-14T00:15:41.375Z,15.98
2022-10-14T00:18:10.162Z,14.88
2022-10-14T00:20:38.142Z,16.02
2022-10-14T00:23:06.101Z,16.38
2022-10-14T00:25:39.283Z,14.60
2022-10-14T00:28:07.337Z,14.85
2022-10-14T00:30:35.265Z,16.42
2022-10-14T00:33:03.377Z,16.38
2022-10-14T00:35:32.359Z,16.67
2022-10-14T00:38:00.709Z,17.15
2022-10-14T00:40:28.732Z,17.73
2022-10-14T00:42:57.964Z,17.13
2022-10-14T00:45:27.218Z,17.15
2022-10-14T00:47:55.230Z,18.00
2022-10-14T00:50:23.222Z,17.73
2022-10-14T00:52:51.904Z,18.20
2022-10-14T00:55:20.760Z,19.30
2022-10-14T00:57:48.632Z,18.90
2022-10-14T01:00:20.196Z,17.98
2022-10-14T01:02:50.307Z,21.30
2022-10-14T01:05:20.341Z,19.83
2022-10-14T01:08:00.795Z,18.23
2022-10-14T01:10:38.808Z,20.45
2022-10-14T01:13:18.845Z,19.40
2022-10-14T01:15:56.685Z,21.58
2022-10-14T01:18:44.223Z,20.45
2022-10-14T01:21:19.097Z,21.80
2022-10-14T01:24:29.177Z,21.42
2022-10-14T01:27:20.934Z,21.50
2022-10-14T01:30:12.226Z,21.08
2022-10-14T01:32:50.180Z,21.63
2022-10-14T01:35:28.905Z,22.75
2022-10-14T01:38:00.919Z,22.10
2022-10-14T01:40:34.385Z,22.42
2022-10-14T01:43:05.237Z,22.80
2022-10-14T01:45:37.887Z,22.13
2022-10-14T01:48:07.499Z,22.00
2022-10-14T01:50:37.884Z,21.45
2022-10-14T01:53:09.306Z,21.90
2022-10-14T01:55:41.274Z,22.13
2022-10-14T01:58:11.160Z,20.67
2022-10-14T02:00:40.399Z,22.73
2022-10-14T02:03:08.292Z,22.75
2022-10-14T02:05:39.877Z,22.15
2022-10-14T02:08:13.181Z,22.10
2022-10-14T02:11:05.674Z,22.35
2022-10-14T02:13:46.063Z,24.42
2022-10-14T02:16:25.169Z,21.98
2022-10-14T02:19:01.130Z,22.55
2022-10-14T02:21:35.615Z,23.23
2022-10-14T02:24:08.657Z,22.60
2022-10-14T02:26:38.155Z,22.23
2022-10-14T02:29:07.172Z,23.45
2022-10-14T02:31:39.366Z,23.38
2022-10-14T02:34:11.591Z,22.50
2022-10-14T02:36:41.925Z,22.75
2022-10-14T02:39:14.105Z,22.70
2022-10-14T02:41:42.614Z,24.35
2022-10-14T02:44:10.469Z,23.83
2022-10-14T02:46:40.696Z,24.67
2022-10-14T02:49:08.902Z,22.77
2022-10-14T02:51:36.817Z,24.17
2022-10-14T02:54:04.918Z,24.48
2022-10-14T02:56:32.897Z,24.60
2022-10-14T02:59:00.852Z,23.27
2022-10-14T03:01:29.980Z,23.50
2022-10-14T03:04:01.009Z,23.83
2022-10-14T03:06:29.025Z,25.05
2022-10-14T03:08:56.904Z,24.85
2022-10-14T03:11:24.910Z,24.20
2022-10-14T03:13:52.835Z,24.10
2022-10-14T03:16:20.666Z,23.70
2022-10-14T03:18:48.712Z,23.75
2022-10-14T03:21:18.103Z,24.45
2022-10-14T03:23:45.938Z,26.10
2022-10-14T03:26:14.273Z,26.95
2022-10-14T03:28:42.423Z,26.15
2022-10-14T03:31:10.302Z,26.33
2022-10-14T03:33:38.399Z,28.08
2022-10-14T03:36:06.630Z,25.10
2022-10-14T03:38:35.941Z,26.15
2022-10-14T03:41:03.996Z,24.75
2022-10-14T03:43:32.129Z,24.58
2022-10-14T03:45:59.964Z,24.95
2022-10-14T03:48:27.973Z,24.05
2022-10-14T03:50:55.891Z,22.90
2022-10-14T03:53:23.718Z,22.98
2022-10-14T03:55:53.288Z,24.27
2022-10-14T03:58:21.252Z,24.58
2022-10-14T04:00:49.174Z,24.35
2022-10-14T04:03:17.212Z,24.17
2022-10-14T04:05:45.215Z,22.77
2022-10-14T04:08:13.065Z,22.85
2022-10-14T04:10:40.994Z,23.23
2022-10-14T04:13:10.329Z,23.50
2022-10-14T04:15:40.018Z,21.88
2022-10-14T04:18:07.962Z,22.08
2022-10-14T04:20:35.870Z,26.15
2022-10-14T04:23:03.713Z,25.73
2022-10-14T04:25:31.765Z,25.23
2022-10-14T04:27:59.733Z,23.77
2022-10-14T04:30:29.017Z,23.67
2022-10-14T04:32:57.017Z,22.70
2022-10-14T04:35:25.030Z,23.33
2022-10-14T04:37:52.898Z,23.55
2022-10-14T04:40:25.795Z,23.92
2022-10-14T04:42:57.367Z,23.70
2022-10-14T04:45:26.446Z,24.50
2022-10-14T04:47:55.724Z,23.95
2022-10-14T04:50:23.594Z,23.23
2022-10-14T04:52:51.759Z,23.67
2022-10-14T04:55:19.587Z,22.20
2022-10-14T04:57:47.566Z,20.88
2022-10-14T05:00:16.879Z,21.42
2022-10-14T05:02:44.827Z,21.55
2022-10-14T05:05:14.960Z,21.05
2022-10-14T05:07:43.418Z,22.25
2022-10-14T05:10:11.465Z,21.30
2022-10-14T05:12:40.193Z,21.40
2022-10-14T05:15:08.791Z,21.13
2022-10-14T05:17:37.717Z,21.80
2022-10-14T05:20:06.409Z,22.65
2022-10-14T05:22:35.789Z,23.40
2022-10-14T05:25:03.678Z,22.15
2022-10-14T05:27:31.622Z,22.23
2022-10-14T05:29:59.628Z,22.17
2022-10-14T05:32:27.497Z,21.75
2022-10-14T05:34:55.360Z,21.77
2022-10-14T05:37:23.413Z,22.25
2022-10-14T05:39:52.626Z,22.77
2022-10-14T05:42:20.843Z,21.27
2022-10-14T05:44:48.998Z,22.17
2022-10-14T05:47:16.826Z,21.75
2022-10-14T05:49:44.658Z,22.92
2022-10-14T05:52:12.758Z,22.15
2022-10-14T05:54:40.599Z,22.25
2022-10-14T05:57:09.877Z,23.35
2022-10-14T05:59:38.081Z,23.13
2022-10-14T06:02:05.940Z,22.63
2022-10-14T06:04:33.873Z,22.88
2022-10-14T06:07:01.955Z,25.80
2022-10-14T06:09:32.049Z,24.35
2022-10-14T06:11:59.926Z,25.67
2022-10-14T06:14:29.483Z,23.98
2022-10-14T06:16:57.412Z,22.60
2022-10-14T06:19:25.359Z,23.02
2022-10-14T06:21:53.545Z,22.55
2022-10-14T06:24:21.366Z,24.70
2022-10-14T06:26:49.548Z,24.52
2022-10-14T06:29:18.170Z,22.83
2022-10-14T06:31:47.436Z,22.50
2022-10-14T06:34:15.243Z,20.85
2022-10-14T06:36:43.891Z,20.90
2022-10-14T06:39:12.014Z,20.88
2022-10-14T06:41:39.883Z,20.00
2022-10-14T06:44:07.885Z,19.15
2022-10-14T06:46:35.692Z,19.40
2022-10-14T06:49:04.957Z,18.50
2022-10-14T06:51:32.935Z,17.52
2022-10-14T06:54:00.802Z,16.80
2022-10-14T06:56:28.705Z,16.25
2022-10-14T06:58:57.091Z,15.35
2022-10-14T07:01:25.103Z,14.98
2022-10-14T07:03:55.885Z,14.10
2022-10-14T07:06:26.305Z,15.73
2022-10-14T07:08:54.460Z,15.18
2022-10-14T07:11:22.293Z,14.40
2022-10-14T07:13:50.319Z,14.07
2022-10-14T07:16:18.161Z,12.20
2022-10-14T07:18:46.069Z,11.38
2022-10-14T07:21:14.319Z,10.30
2022-10-14T07:23:43.508Z,9.10
2022-10-14T07:26:11.423Z,9.48
2022-10-14T07:28:39.691Z,8.98
2022-10-14T07:31:09.720Z,8.75
2022-10-14T07:33:39.162Z,8.52
2022-10-14T07:36:10.199Z,7.97
2022-10-14T07:38:38.644Z,6.97
2022-10-14T07:41:17.002Z,7.10
2022-10-14T07:43:45.535Z,7.05
2022-10-14T07:46:14.823Z,7.32
2022-10-14T07:48:56.839Z,6.60
2022-10-14T07:51:26.007Z,5.85
2022-10-14T07:53:54.454Z,6.57
2022-10-14T07:56:24.272Z,6.68
2022-10-14T07:58:52.644Z,6.07
2022-10-14T08:01:20.867Z,6.45
2022-10-14T08:03:49.921Z,5.70
2022-10-14T08:06:18.391Z,6.30
2022-10-14T08:08:46.833Z,6.00
2022-10-14T08:11:17.272Z,6.78
2022-10-14T08:13:47.371Z,6.40
2022-10-14T08:16:17.942Z,6.43
2022-10-14T08:18:46.994Z,6.45
2022-10-14T08:21:16.019Z,7.68
2022-10-14T08:23:44.189Z,6.30
2022-10-14T08:26:23.678Z,6.10
2022-10-14T08:28:53.287Z,6.22
2022-10-14T08:31:22.276Z,6.90
2022-10-14T08:33:50.682Z,6.18
2022-10-14T08:36:19.600Z,6.90
2022-10-14T08:38:47.721Z,7.65
2022-10-14T08:41:27.251Z,6.63
2022-10-14T08:44:11.513Z,6.00
2022-10-14T08:46:48.066Z,5.95
2022-10-14T08:49:26.083Z,6.13
2022-10-14T08:51:59.907Z,5.80
2022-10-14T08:54:36.110Z,5.80
2022-10-14T08:57:05.359Z,5.40
2022-10-14T08:59:41.262Z,5.75
2022-10-14T09:02:22.871Z,5.05
2022-10-14T09:04:51.360Z,4.82
2022-10-14T09:07:21.164Z,6.00
2022-10-14T09:09:52.398Z,5.68
2022-10-14T09:12:25.385Z,5.68
2022-10-14T09:15:04.483Z,5.60
2022-10-14T09:17:38.319Z,6.30
2022-10-14T09:20:18.122Z,6.65
2022-10-14T09:22:48.400Z,6.43
2022-10-14T09:25:17.824Z,6.63
2022-10-14T09:30:18.271Z,6.13
2022-10-14T09:32:49.829Z,7.05
2022-10-14T09:35:24.617Z,6.25
2022-10-14T09:37:53.219Z,7.00
2022-10-14T09:40:29.902Z,6.60
2022-10-14T09:43:01.868Z,6.38
2022-10-14T09:45:47.102Z,6.60
2022-10-14T09:48:18.631Z,6.05
2022-10-14T09:50:51.932Z,5.70
2022-10-14T09:53:26.584Z,6.50
2022-10-14T09:55:56.818Z,5.80
2022-10-14T09:58:31.273Z,5.85
2022-10-14T10:01:01.974Z,5.40
2022-10-14T10:03:33.906Z,5.05
2022-10-14T10:06:05.511Z,4.80
2022-10-14T10:08:35.010Z,5.07
2022-10-14T10:11:07.010Z,5.00
2022-10-14T10:13:39.564Z,4.68
2022-10-14T10:16:20.610Z,4.80
2022-10-14T10:18:48.928Z,4.68
2022-10-14T10:21:20.131Z,5.00
2022-10-14T10:23:53.972Z,4.82
2022-10-14T10:26:26.068Z,4.32
2022-10-14T10:28:58.856Z,5.03
2022-10-14T10:31:58.090Z,5.05
2022-10-14T10:34:54.895Z,4.78
2022-10-14T10:37:28.746Z,4.50
2022-10-14T10:40:11.741Z,4.50
2022-10-14T10:42:51.531Z,4.35
2022-10-14T10:45:35.583Z,4.25
2022-10-14T10:48:16.492Z,4.32
2022-10-14T10:50:49.553Z,4.40
2022-10-14T10:53:33.680Z,4.30
2022-10-14T10:56:13.969Z,4.78
2022-10-14T10:58:49.791Z,4.47
2022-10-14T11:01:36.955Z,4.70
2022-10-14T11:04:23.191Z,4.55
2022-10-14T11:07:17.463Z,5.10
2022-10-14T11:10:15.620Z,4.95
2022-10-14T11:12:54.852Z,5.13
2022-10-14T11:15:38.840Z,4.72
2022-10-14T11:18:12.988Z,4.88
2022-10-14T11:21:01.750Z,5.82
2022-10-14T11:23:54.659Z,4.57
2022-10-14T11:29:19.406Z,5.22
2022-10-14T11:31:54.855Z,5.32
2022-10-14T11:34:34.693Z,5.53
2022-10-14T11:37:11.375Z,5.07
2022-10-14T11:39:43.762Z,5.75
2022-10-14T11:42:25.102Z,5.63
2022-10-14T11:45:09.394Z,5.43
2022-10-14T11:47:41.780Z,5.10
2022-10-14T11:50:17.848Z,5.65
2022-10-14T11:52:56.110Z,4.95
2022-10-14T11:55:25.539Z,4.75
2022-10-14T11:57:58.304Z,4.97
2022-10-14T12:01:03.511Z,5.22
2022-10-14T12:03:46.735Z,5.15
2022-10-14T12:06:20.244Z,5.30
2022-10-14T12:08:55.597Z,5.55
2022-10-14T12:11:30.877Z,5.05
2022-10-14T12:14:07.350Z,5.05
2022-10-14T12:16:35.316Z,5.03
2022-10-14T12:19:03.427Z,5.10
2022-10-14T12:21:36.642Z,5.13
2022-10-14T12:24:10.064Z,5.45
2022-10-14T12:26:50.366Z,4.93
2022-10-14T12:29:21.653Z,4.70
2022-10-14T12:31:52.909Z,4.82
2022-10-14T12:34:34.802Z,5.10
2022-10-14T12:37:43.191Z,4.90
2022-10-14T12:40:27.740Z,4.97
2022-10-14T12:43:17.021Z,5.15
2022-10-14T12:45:52.120Z,5.05
2022-10-14T12:48:23.550Z,4.70
2022-10-14T12:51:08.981Z,4.63
2022-10-14T12:53:39.209Z,4.43
2022-10-14T12:56:08.801Z,4.72
2022-10-14T12:58:40.111Z,5.00
2022-10-14T13:01:17.851Z,5.15
2022-10-14T13:03:48.643Z,5.13
2022-10-14T13:06:36.395Z,4.68
2022-10-14T13:09:35.915Z,5.18
2022-10-14T13:12:43.987Z,5.18
2022-10-14T13:15:48.710Z,5.00
2022-10-14T13:18:49.297Z,5.10
2022-10-14T13:21:54.209Z,4.75
2022-10-14T13:24:28.739Z,4.88
2022-10-14T13:27:08.896Z,5.10
2022-10-14T13:29:53.985Z,5.00
2022-10-14T13:32:31.561Z,4.40
2022-10-14T13:35:12.588Z,4.63
2022-10-14T13:37:45.946Z,4.53
2022-10-14T13:40:22.762Z,4.15
2022-10-14T13:42:53.299Z,4.00
2022-10-14T13:45:25.325Z,4.95
2022-10-14T13:47:55.387Z,4.13
2022-10-14T13:50:27.013Z,4.30
2022-10-14T13:52:58.170Z,4.43
2022-10-14T13:55:28.531Z,4.72
2022-10-14T13:58:13.268Z,4.80
2022-10-14T14:00:46.894Z,4.70
2022-10-14T14:03:24.393Z,4.78
2022-10-14T14:05:53.714Z,5.32
2022-10-14T14:08:42.247Z,5.32
2022-10-14T14:11:19.261Z,5.07
2022-10-14T14:13:57.529Z,5.40
2022-10-14T14:16:33.313Z,5.32
2022-10-14T14:19:08.891Z,4.80
2022-10-14T14:21:38.019Z,5.65
2022-10-14T14:24:16.766Z,5.18
2022-10-14T14:26:45.663Z,5.88
2022-10-14T14:29:20.262Z,4.82
2022-10-14T14:34:40.652Z,5.78
2022-10-14T14:39:58.934Z,5.35
2022-10-14T14:42:29.292Z,5.30
2022-10-14T14:45:02.469Z,5.28
2022-10-14T14:47:31.903Z,5.57
2022-10-14T14:50:29.915Z,5.40
2022-10-14T14:52:52.570Z,6.07
2022-10-14T14:55:38.427Z,5.95
2022-10-14T14:58:15.246Z,6.18
2022-10-14T15:00:46.686Z,6.50
2022-10-14T15:03:14.788Z,6.50
2022-10-14T15:05:51.004Z,6.65
2022-10-14T15:08:23.887Z,6.43
2022-10-14T15:10:53.987Z,6.20
2022-10-14T15:13:32.234Z,5.97
2022-10-14T15:16:00.605Z,7.00
2022-10-14T15:18:30.475Z,7.13
2022-10-14T15:21:19.058Z,6.38
2022-10-14T15:24:03.221Z,7.10
2022-10-14T15:26:34.563Z,6.78
2022-10-14T15:29:13.301Z,6.88
2022-10-14T15:31:42.898Z,7.50
2022-10-14T15:34:18.641Z,7.28
2022-10-14T15:36:51.112Z,7.15
2022-10-14T15:39:19.582Z,7.50
2022-10-14T15:41:47.520Z,7.05
2022-10-14T15:44:15.955Z,7.50
2022-10-14T15:47:03.457Z,7.85
2022-10-14T15:49:33.797Z,8.25
2022-10-14T15:52:03.272Z,7.70
2022-10-14T15:54:31.156Z,7.47
2022-10-14T15:56:59.609Z,8.07
2022-10-14T15:59:27.694Z,7.90
2022-10-14T16:01:56.007Z,8.55
2022-10-14T16:04:28.032Z,8.20
2022-10-14T16:06:58.037Z,8.65
2022-10-14T16:09:28.750Z,8.50
2022-10-14T16:11:59.560Z,8.27
2022-10-14T16:14:28.139Z,7.93
2022-10-14T16:16:56.440Z,8.13
2022-10-14T16:19:24.700Z,8.02
2022-10-14T16:21:52.559Z,8.15
2022-10-14T16:24:22.376Z,8.93
2022-10-14T16:26:51.747Z,8.35
2022-10-14T16:29:20.431Z,9.07
2022-10-14T16:31:50.223Z,9.15
2022-10-14T16:34:18.851Z,9.02
2022-10-14T16:36:47.068Z,8.50
2022-10-14T16:39:15.068Z,9.18
2022-10-14T16:41:43.068Z,9.07
2022-10-14T16:44:24.814Z,9.27
2022-10-14T16:47:11.235Z,9.02
2022-10-14T16:49:40.060Z,8.55
2022-10-14T16:52:08.707Z,9.73
2022-10-14T16:54:36.647Z,9.82
2022-10-14T16:57:04.816Z,10.00
2022-10-14T16:59:34.321Z,9.13
2022-10-14T17:02:02.178Z,10.38
2022-10-14T17:04:30.145Z,9.85
2022-10-14T17:06:58.105Z,9.90
2022-10-14T17:09:26.044Z,9.55
2022-10-14T17:11:54.960Z,9.98
2022-10-14T17:14:24.354Z,10.05
2022-10-14T17:16:53.574Z,11.55
2022-10-14T17:19:24.269Z,11.55
2022-10-14T17:21:52.346Z,10.27
2022-10-14T17:24:20.213Z,11.75
2022-10-14T17:26:48.331Z,11.75
2022-10-14T17:29:16.385Z,10.90
2022-10-14T17:31:44.972Z,10.95
2022-10-14T17:34:14.358Z,11.82
2022-10-14T17:36:42.630Z,11.57
2022-10-14T17:39:21.284Z,12.55
2022-10-14T17:41:55.734Z,12.70
2022-10-14T17:44:23.743Z,13.13
2022-10-14T17:46:53.356Z,13.15
2022-10-14T17:49:22.812Z,13.10
2022-10-14T17:51:50.793Z,12.40
2022-10-14T17:54:18.625Z,13.95
2022-10-14T17:56:46.686Z,13.63
2022-10-14T17:59:14.684Z,14.23
2022-10-14T18:02:01.451Z,12.77
2022-10-14T18:04:33.400Z,14.27
2022-10-14T18:07:01.395Z,14.85
2022-10-14T18:09:29.281Z,13.52
2022-10-14T18:12:13.421Z,13.55
2022-10-14T18:14:42.263Z,13.15
2022-10-14T18:17:12.998Z,13.98
2022-10-14T18:19:51.143Z,13.52
2022-10-14T18:22:20.604Z,13.93
2022-10-14T18:24:48.406Z,14.75
2022-10-14T18:27:16.342Z,15.10
2022-10-14T18:29:44.422Z,14.18
2022-10-14T18:32:12.263Z,14.18
2022-10-14T18:34:40.112Z,15.70
2022-10-14T18:37:09.666Z,14.70
2022-10-14T18:39:37.784Z,14.70
2022-10-14T18:42:07.459Z,14.93
2022-10-14T18:44:35.543Z,14.10
2022-10-14T18:47:03.350Z,15.20
2022-10-14T18:49:38.166Z,15.48
2022-10-14T18:52:10.620Z,15.50
2022-10-14T18:54:43.260Z,14.57
2022-10-14T18:57:15.062Z,15.18
2022-10-14T18:59:45.494Z,15.05
2022-10-14T19:02:14.841Z,14.98
2022-10-14T19:04:42.787Z,15.35
2022-10-14T19:07:12.005Z,15.38
2022-10-14T19:09:39.947Z,15.02
2022-10-14T19:12:22.226Z,15.18
2022-10-14T19:14:50.500Z,15.75
2022-10-14T19:17:18.337Z,15.55
2022-10-14T19:19:46.243Z,16.25
2022-10-14T19:22:15.860Z,15.25
2022-10-14T19:24:43.818Z,15.52
2022-10-14T19:27:12.012Z,15.57
2022-10-14T19:29:40.041Z,15.07
2022-10-14T19:32:07.947Z,14.85
2022-10-14T19:34:35.880Z,14.63
2022-10-14T19:37:03.854Z,15.32
2022-10-14T19:39:33.066Z,15.30
2022-10-14T19:42:00.985Z,14.50
2022-10-14T19:44:28.999Z,14.77
2022-10-14T19:46:56.886Z,14.05
2022-10-14T19:49:24.818Z,16.02
2022-10-14T19:51:52.740Z,14.98
2022-10-14T19:54:20.574Z,13.07
2022-10-14T19:56:49.972Z,14.23
2022-10-14T19:59:17.966Z,14.07
2022-10-14T20:01:45.917Z,15.48
2022-10-14T20:04:13.977Z,13.20
2022-10-14T20:06:43.129Z,13.35
2022-10-14T20:09:13.639Z,13.10
2022-10-14T20:11:41.948Z,14.02
2022-10-14T20:14:11.397Z,14.07
2022-10-14T20:16:39.229Z,13.98
2022-10-14T20:19:07.121Z,12.65
2022-10-14T20:21:35.022Z,13.52
2022-10-14T20:24:02.882Z,13.27
2022-10-14T20:26:31.062Z,13.10
2022-10-14T20:28:59.519Z,13.10
2022-10-14T20:31:28.839Z,13.27
2022-10-14T20:33:57.756Z,13.68
2022-10-14T20:36:25.907Z,13.73
2022-10-14T20:38:53.756Z,13.65
2022-10-14T20:41:23.258Z,13.93
2022-10-14T20:43:51.516Z,13.68
2022-10-14T20:46:21.850Z,13.88
2022-10-14T20:48:55.132Z,13.18
2022-10-14T20:51:23.667Z,12.45
2022-10-14T20:53:52.782Z,13.25
2022-10-14T20:56:22.464Z,12.80
2022-10-14T20:58:55.157Z,13.00
2022-10-14T21:01:23.670Z,13.10
2022-10-14T21:03:53.559Z,12.15
2022-10-14T21:06:23.351Z,13.40
2022-10-14T21:08:52.917Z,12.10
2022-10-14T21:11:23.450Z,12.55
2022-10-14T21:13:53.724Z,13.45
2022-10-14T21:16:23.950Z,12.85
2022-10-14T21:18:57.853Z,11.75
2022-10-14T21:21:27.680Z,12.52
2022-10-14T21:23:56.168Z,12.15
2022-10-14T21:26:25.308Z,11.80
2022-10-14T21:28:53.582Z,11.60
2022-10-14T21:31:21.641Z,11.30
2022-10-14T21:33:54.838Z,11.18
2022-10-14T21:36:24.471Z,10.77
2022-10-14T21:38:52.862Z,10.30
2022-10-14T21:41:20.937Z,10.32
2022-10-14T21:43:48.898Z,10.73
2022-10-14T21:46:17.611Z,10.38
2022-10-14T21:48:46.478Z,10.80
2022-10-14T21:51:16.735Z,10.70
2022-10-14T21:53:47.625Z,10.35
2022-10-14T21:56:16.928Z,10.55
2022-10-14T21:58:45.526Z,10.63
2022-10-14T22:01:16.207Z,10.52
2022-10-14T22:03:44.839Z,9.98
2022-10-14T22:06:15.140Z,10.20
2022-10-14T22:08:46.144Z,10.43
2022-10-14T22:11:17.253Z,10.80
2022-10-14T22:13:45.624Z,11.43
2022-10-14T22:16:14.183Z,10.38
2022-10-14T22:18:44.860Z,10.25
2022-10-14T22:21:12.832Z,10.98
2022-10-14T22:23:41.009Z,9.85
2022-10-14T22:26:12.929Z,10.43
2022-10-14T22:28:41.484Z,10.82
2022-10-14T22:31:11.748Z,10.60
2022-10-14T22:33:41.119Z,10.45
2022-10-14T22:36:10.458Z,9.77
2022-10-14T22:38:39.390Z,9.40
2022-10-14T22:41:08.206Z,9.02
2022-10-14T22:43:38.563Z,9.95
2022-10-14T22:46:08.716Z,9.40
2022-10-14T22:48:37.351Z,10.05
2022-10-14T22:51:07.172Z,9.77
2022-10-14T22:53:35.949Z,8.93
2022-10-14T22:56:04.665Z,9.07
2022-10-14T22:58:33.046Z,9.38
2022-10-14T23:01:08.486Z,9.45
2022-10-14T23:03:37.034Z,10.05
2022-10-14T23:06:06.615Z,8.82
2022-10-14T23:08:35.465Z,10.32
2022-10-14T23:11:04.710Z,10.32
2022-10-14T23:13:33.346Z,9.85
2022-10-14T23:16:03.120Z,10.13
2022-10-14T23:18:34.703Z,9.98
2022-10-14T23:21:09.090Z,10.30
2022-10-14T23:23:37.292Z,10.02
2022-10-14T23:26:05.277Z,10.48
2022-10-14T23:28:33.230Z,10.30
2022-10-14T23:31:01.231Z,10.85
2022-10-14T23:33:29.276Z,10.25
2022-10-14T23:36:04.362Z,10.48
2022-10-14T23:38:32.461Z,10.73
2022-10-14T23:41:02.641Z,10.57
2022-10-14T23:43:31.441Z,10.40
2022-10-14T23:45:59.900Z,10.25
2022-10-14T23:48:28.135Z,11.20
2022-10-14T23:50:56.719Z,11.65
2022-10-14T23:53:26.920Z,11.30
2022-10-14T23:55:55.560Z,11.00
2022-10-14T23:58:23.618Z,11.63
